Hopeland, PA (17533)

4:43 PM EDT on September 29, 2016 (GMT -0400)
Webster Hill | | Change Station

Elev 482 ft 40.20 °N, 76.31 °W | Updated 15 seconds ago

Light Rain
Light Rain Mist
59.7 °F
Feels Like 59.7 °F
N
5.4
Wind Variable Wind from ESE
Gusts 7.6 mph

Today
High -- | Low -- °F
--% Chance of Precip.
Yesterday
High -- | Low -- °F
Precip. -- in
Pressure 30.24 in
Visibility 5.0 miles
Clouds Overcast 1100 ft
Dew Point 58 °F
Humidity 95%
Rainfall 0.72 in
Snow Depth Not available.
6:59 AM 6:49 PM
Waning Crescent, 1% visible
METAR KLNS 291953Z 09014KT 5SM -RA BR OVC011 16/16 A3024 RMK AO2 SLP239 P0000 T01610161
Pressure 30.24 in
Visibility 5.0 miles
Clouds Overcast 1100 ft
Dew Point 58 °F
Humidity 95%
Rainfall 0.72 in
Snow Depth Not available.
6:59 AM 6:49 PM
Waning Crescent, 1% visible
METAR KLNS 291953Z 09014KT 5SM -RA BR OVC011 16/16 A3024 RMK AO2 SLP239 P0000 T01610161

10-Day Weather Forecast

Almanac

Astronomy

Sep. 29, 2016 Rise Set
Actual Time
Civil Twilight
Nautical Twilight
Astronomical Twilight
Moon
Length of Visible Light
Length of Day
Tomorrow will be .
, % of the Moon is Illuminated

Today's Extremes

State Highs State Lows

Community

WunderPhotos

Upload Photos

1,942,564 photos uploaded!

WunderBlog® & News

Nearby

Air Quality

  Air Quality AQ Index Pollutant
Not available.

Snow Depth

Station Depth Elevation

Earthquake Activity

City Distance Mag. Time & Date
Minimum magnitude displayed is 2.5.

Coastal Water Temperatures

Place Temperature

Stations

Nearby Weather Stations

Station Location Temp. Windchill Dew Point Humidity Wind Precip. Elev Updated Type
                   

Watches & Warnings

There are currently no watches in effect.